Genoa, Minnesota
Current Conditions -  °F | °C
As of 6:32 AM on Monday 26 Jan 2015 (Local Time) from KEVM Reporting Station
Haze Haze  
Wind Chill: 12°   Ceiling: 800
Heat Index: 21°   Visibility: 2.5mi
Dew Point: 21°   Wind: 8mph
Humidity: 100%   Direction: 190°S
Pressure: 29.61"   Gusts: NA
Location:  47.4232°N, 92.5107°W
Report Text: KEVM 261232Z AUTO 19007KT 2 1/2SM BR OVC008 M06/M06 A2961 RMK AO2
Loading
Personal Weather Stations






























Interactive Weather Map New forecast layout! Learn more

10-Day Weather Forecast

Advertisements
Track Severe Weather on mobile